createdAt,value
2023-02-28T00:01:57.445Z,17.75
2023-02-28T00:07:02.218Z,17.45
2023-02-28T00:12:11.266Z,14.30
2023-02-28T00:17:19.030Z,33.83
2023-02-28T00:22:24.789Z,19.95
2023-02-28T00:27:29.459Z,16.77
2023-02-28T00:32:37.143Z,20.55
2023-02-28T00:37:42.041Z,19.50
2023-02-28T00:42:46.710Z,19.08
2023-02-28T00:47:54.321Z,17.17
2023-02-28T00:52:59.482Z,78.15
2023-02-28T00:58:04.336Z,26.23
2023-02-28T01:03:11.608Z,23.65
2023-02-28T01:08:16.721Z,24.73
2023-02-28T01:13:21.857Z,23.15
2023-02-28T01:18:29.730Z,21.45
2023-02-28T01:23:34.625Z,19.55
2023-02-28T01:28:39.435Z,22.60
2023-02-28T01:33:47.248Z,25.85
2023-02-28T01:38:52.219Z,23.27
2023-02-28T01:44:04.699Z,22.60
2023-02-28T01:49:13.927Z,21.42
2023-02-28T01:54:20.534Z,22.50
2023-02-28T01:59:27.289Z,25.15
2023-02-28T02:04:37.397Z,22.58
2023-02-28T02:09:42.150Z,26.90
2023-02-28T02:14:53.519Z,40.85
2023-02-28T02:20:16.745Z,39.72
2023-02-28T02:25:27.706Z,39.67
2023-02-28T02:30:49.426Z,29.08
2023-02-28T02:35:58.366Z,38.25
2023-02-28T02:41:08.537Z,34.85
2023-02-28T02:46:15.091Z,27.77
2023-02-28T02:51:25.146Z,34.42
2023-02-28T02:56:31.758Z,31.58
2023-02-28T03:01:37.396Z,35.33
2023-02-28T03:06:44.819Z,35.70
2023-02-28T03:11:49.552Z,29.42
2023-02-28T03:17:01.109Z,34.13
2023-02-28T03:22:16.526Z,33.53
2023-02-28T03:27:25.256Z,24.60
2023-02-28T03:32:32.555Z,26.77
2023-02-28T03:37:42.326Z,21.75
2023-02-28T03:42:48.502Z,26.25
2023-02-28T03:47:55.514Z,25.90
2023-02-28T03:53:06.102Z,19.33
2023-02-28T03:58:15.562Z,18.83
2023-02-28T04:03:20.496Z,20.97
2023-02-28T04:08:28.109Z,19.50
2023-02-28T04:13:32.953Z,18.85
2023-02-28T04:18:37.854Z,18.13
2023-02-28T04:23:45.533Z,19.65
2023-02-28T04:28:50.294Z,17.55
2023-02-28T04:33:55.077Z,25.27
2023-02-28T04:39:02.738Z,20.63
2023-02-28T04:44:07.760Z,22.05
2023-02-28T04:49:13.078Z,20.30
2023-02-28T04:54:20.464Z,18.77
2023-02-28T04:59:25.419Z,19.42
2023-02-28T05:04:30.335Z,19.73
2023-02-28T05:09:38.081Z,22.17
2023-02-28T05:14:42.943Z,18.35
2023-02-28T05:19:47.763Z,16.90
2023-02-28T05:24:55.094Z,18.55
2023-02-28T05:30:00.254Z,17.83
2023-02-28T05:35:05.032Z,16.67
2023-02-28T05:40:14.263Z,16.55
2023-02-28T05:45:19.193Z,17.27
2023-02-28T05:50:24.031Z,17.90
2023-02-28T05:55:31.732Z,16.70
2023-02-28T06:00:36.563Z,14.18
2023-02-28T06:05:42.041Z,20.92
2023-02-28T06:10:49.523Z,19.58
2023-02-28T06:15:54.482Z,19.15
2023-02-28T06:20:59.832Z,14.73
2023-02-28T06:26:07.769Z,17.15
2023-02-28T06:31:13.446Z,14.15
2023-02-28T06:36:19.508Z,15.60
2023-02-28T06:41:28.812Z,18.80
2023-02-28T06:46:34.046Z,16.37
2023-02-28T06:51:39.310Z,18.10
2023-02-28T06:56:46.654Z,18.65
2023-02-28T07:01:51.729Z,23.02
2023-02-28T07:06:58.002Z,25.05
2023-02-28T07:12:05.456Z,18.30
2023-02-28T07:17:12.149Z,19.02
2023-02-28T07:22:16.947Z,19.17
2023-02-28T07:27:27.597Z,22.60
2023-02-28T07:32:32.475Z,21.50
2023-02-28T07:37:37.803Z,19.08
2023-02-28T07:42:45.673Z,18.70
2023-02-28T07:47:50.782Z,19.08
2023-02-28T07:52:55.541Z,21.33
2023-02-28T07:58:03.544Z,20.27
2023-02-28T08:03:08.294Z,20.27
2023-02-28T08:08:13.053Z,25.10
2023-02-28T08:13:20.498Z,22.88
2023-02-28T08:18:25.844Z,20.45
2023-02-28T08:23:30.619Z,26.52
2023-02-28T08:28:38.121Z,27.25
2023-02-28T08:33:43.325Z,21.65
2023-02-28T08:38:48.265Z,25.55
2023-02-28T08:43:55.904Z,25.45
2023-02-28T08:49:03.030Z,28.30
2023-02-28T08:54:11.335Z,19.85
2023-02-28T08:59:19.134Z,22.98
2023-02-28T09:04:25.364Z,23.67
2023-02-28T09:09:30.416Z,24.88
2023-02-28T09:14:42.196Z,24.08
2023-02-28T09:19:47.534Z,32.38
2023-02-28T09:24:52.461Z,36.30
2023-02-28T09:29:59.885Z,24.35
2023-02-28T09:35:05.770Z,25.88
2023-02-28T09:40:14.390Z,26.33
2023-02-28T09:45:26.950Z,37.47
2023-02-28T09:50:34.680Z,44.92
2023-02-28T09:55:46.803Z,38.38
2023-02-28T10:00:59.316Z,19.65
2023-02-28T10:06:07.417Z,21.45
2023-02-28T10:11:17.957Z,40.13
2023-02-28T10:16:28.716Z,29.60
2023-02-28T10:21:35.908Z,23.45
2023-02-28T10:26:40.682Z,20.00
2023-02-28T10:31:48.218Z,19.80
2023-02-28T10:36:54.178Z,19.05
2023-02-28T10:41:59.367Z,18.27
2023-02-28T10:47:08.111Z,22.50
2023-02-28T10:52:13.414Z,16.30
2023-02-28T10:57:20.389Z,17.02
2023-02-28T11:02:38.951Z,22.35
2023-02-28T11:07:52.892Z,19.52
2023-02-28T11:13:00.906Z,16.15
2023-02-28T11:18:22.457Z,16.33
2023-02-28T11:23:28.912Z,14.00
2023-02-28T11:28:35.120Z,17.30
2023-02-28T11:33:49.931Z,19.08
2023-02-28T11:38:55.270Z,15.82
2023-02-28T11:44:05.086Z,14.95
2023-02-28T11:49:19.939Z,15.98
2023-02-28T11:54:48.915Z,15.50
2023-02-28T11:59:59.079Z,27.75
2023-02-28T12:05:14.538Z,16.42
2023-02-28T12:10:24.083Z,29.77
2023-02-28T12:15:32.875Z,17.03
2023-02-28T12:20:45.577Z,53.28
2023-02-28T12:25:56.097Z,32.67
2023-02-28T12:31:02.407Z,18.20
2023-02-28T12:36:16.452Z,102.57
2023-02-28T12:41:22.733Z,42.67
2023-02-28T12:46:28.426Z,43.95
2023-02-28T12:51:36.162Z,43.90
2023-02-28T12:56:48.061Z,34.38
2023-02-28T13:02:01.274Z,40.28
2023-02-28T13:07:19.604Z,21.50
2023-02-28T13:12:24.677Z,15.50
2023-02-28T13:17:29.940Z,19.58
2023-02-28T13:22:45.292Z,20.25
2023-02-28T13:27:55.722Z,23.02
2023-02-28T13:38:20.269Z,18.83
2023-02-28T13:43:35.747Z,24.60
2023-02-28T13:48:41.420Z,27.70
2023-02-28T13:54:00.928Z,19.35
2023-02-28T13:59:19.390Z,40.78
2023-02-28T14:04:39.054Z,66.78
2023-02-28T14:09:45.482Z,35.90
2023-02-28T14:15:02.181Z,50.55
2023-02-28T14:20:07.494Z,33.50
2023-02-28T14:25:14.993Z,33.95
2023-02-28T14:30:30.803Z,23.05
2023-02-28T14:35:50.104Z,22.10
2023-02-28T14:40:56.393Z,20.75
2023-02-28T14:46:04.560Z,26.20
2023-02-28T14:51:09.467Z,22.98
2023-02-28T14:56:22.196Z,25.52
2023-02-28T15:01:29.636Z,18.63
2023-02-28T15:06:34.805Z,29.30
2023-02-28T15:11:40.107Z,27.58
2023-02-28T15:16:48.706Z,22.20
2023-02-28T15:21:55.946Z,21.17
2023-02-28T15:27:01.326Z,50.88
2023-02-28T15:32:11.512Z,33.28
2023-02-28T15:37:37.196Z,24.17
2023-02-28T15:42:41.966Z,25.10
2023-02-28T15:47:50.246Z,20.35
2023-02-28T15:52:55.222Z,19.17
2023-02-28T15:58:01.843Z,19.77
2023-02-28T16:03:26.551Z,27.83
2023-02-28T16:08:31.231Z,30.25
2023-02-28T16:13:36.056Z,34.50
2023-02-28T16:18:43.522Z,24.35
2023-02-28T16:23:48.180Z,23.20
2023-02-28T16:28:53.578Z,24.23
2023-02-28T16:34:00.935Z,25.05
2023-02-28T16:39:06.294Z,25.20
2023-02-28T16:44:14.773Z,27.80
2023-02-28T16:49:22.184Z,25.25
2023-02-28T16:54:26.869Z,30.52
2023-02-28T16:59:32.029Z,34.40
2023-02-28T17:04:39.564Z,27.63
2023-02-28T17:09:45.621Z,32.50
2023-02-28T17:14:51.382Z,35.38
2023-02-28T17:19:58.803Z,43.35
2023-02-28T17:25:03.532Z,50.80
2023-02-28T17:30:14.100Z,45.15
2023-02-28T17:35:21.590Z,44.15
2023-02-28T17:40:27.130Z,47.45
2023-02-28T17:45:31.776Z,56.30
2023-02-28T17:50:39.268Z,104.63
2023-02-28T17:55:44.268Z,78.28
2023-02-28T18:00:54.968Z,69.85
2023-02-28T18:06:02.712Z,71.65
2023-02-28T18:11:07.735Z,67.13
2023-02-28T18:16:12.863Z,54.33
2023-02-28T18:21:20.760Z,52.78
2023-02-28T18:26:25.634Z,58.35
2023-02-28T18:31:32.737Z,57.03
2023-02-28T18:36:40.402Z,56.42
2023-02-28T18:41:45.309Z,51.40
2023-02-28T18:46:50.486Z,46.95
2023-02-28T18:51:58.984Z,50.58
2023-02-28T18:57:03.803Z,48.10
2023-02-28T19:02:09.344Z,52.47
2023-02-28T19:07:16.987Z,45.33
2023-02-28T19:12:23.906Z,65.50
2023-02-28T19:17:28.852Z,53.67
2023-02-28T19:22:37.369Z,52.60
2023-02-28T19:27:42.335Z,40.63
2023-02-28T19:32:47.083Z,39.50
2023-02-28T19:37:55.281Z,42.45
2023-02-28T19:43:02.757Z,50.10
2023-02-28T19:48:10.283Z,39.70
2023-02-28T19:53:17.760Z,38.00
2023-02-28T19:58:22.609Z,39.95
2023-02-28T20:03:27.367Z,42.47
2023-02-28T20:08:34.848Z,39.28
2023-02-28T20:13:39.980Z,38.75
2023-02-28T20:18:46.126Z,40.05
2023-02-28T20:23:53.759Z,48.47
2023-02-28T20:28:58.577Z,64.40
2023-02-28T20:34:03.489Z,41.33
2023-02-28T20:39:10.933Z,46.08
2023-02-28T20:49:23.311Z,33.50
2023-02-28T20:54:31.366Z,40.72
2023-02-28T20:59:36.243Z,39.70
2023-02-28T21:04:41.106Z,32.30
2023-02-28T21:09:48.541Z,35.20
2023-02-28T21:14:53.715Z,38.83
2023-02-28T21:19:58.476Z,29.73
2023-02-28T21:25:05.829Z,38.45
2023-02-28T21:30:11.245Z,34.42
2023-02-28T21:35:16.024Z,34.65
2023-02-28T21:40:23.608Z,35.35
2023-02-28T21:45:29.493Z,32.53
2023-02-28T21:50:34.247Z,31.55
2023-02-28T21:55:41.622Z,34.33
2023-02-28T22:00:46.670Z,33.78
2023-02-28T22:05:51.369Z,45.90
2023-02-28T22:10:58.716Z,37.53
2023-02-28T22:16:05.366Z,32.38
2023-02-28T22:21:10.923Z,33.25
2023-02-28T22:26:19.365Z,41.80
2023-02-28T22:31:24.977Z,30.35
2023-02-28T22:36:30.508Z,33.85
2023-02-28T22:41:38.046Z,31.08
2023-02-28T22:46:42.841Z,31.02
2023-02-28T22:51:47.743Z,37.95
2023-02-28T22:56:55.033Z,44.85
2023-02-28T23:01:59.725Z,42.58
2023-02-28T23:07:04.927Z,38.78
2023-02-28T23:12:12.354Z,33.28
2023-02-28T23:17:17.904Z,36.47
2023-02-28T23:22:22.595Z,30.70
2023-02-28T23:27:29.979Z,35.72
2023-02-28T23:32:34.747Z,37.70
2023-02-28T23:37:40.582Z,33.13
2023-02-28T23:42:47.839Z,32.40
2023-02-28T23:47:52.721Z,36.45
2023-02-28T23:52:57.366Z,33.47
2023-02-28T23:58:04.709Z,34.78
